sensor_id;sensor_type;location;lat;lon;timestamp;P1;durP1;ratioP1;P2;durP2;ratioP2
83099;SDS011;72972;51.784;4.660;2024-02-21T00:01:39;10.68;;;2.95;;
83099;SDS011;72972;51.784;4.660;2024-02-21T00:04:04;8.82;;;3.00;;
83099;SDS011;72972;51.784;4.660;2024-02-21T00:06:29;6.60;;;2.40;;
83099;SDS011;72972;51.784;4.660;2024-02-21T00:08:55;6.10;;;2.50;;
83099;SDS011;72972;51.784;4.660;2024-02-21T00:11:20;3.60;;;2.35;;
83099;SDS011;72972;51.784;4.660;2024-02-21T00:13:46;9.98;;;2.85;;
83099;SDS011;72972;51.784;4.660;2024-02-21T00:16:11;8.05;;;3.20;;
83099;SDS011;72972;51.784;4.660;2024-02-21T00:18:36;4.32;;;2.67;;
83099;SDS011;72972;51.784;4.660;2024-02-21T00:21:02;8.07;;;2.92;;
83099;SDS011;72972;51.784;4.660;2024-02-21T00:23:28;4.38;;;2.50;;
83099;SDS011;72972;51.784;4.660;2024-02-21T00:25:53;6.07;;;2.80;;
83099;SDS011;72972;51.784;4.660;2024-02-21T00:28:19;5.47;;;2.50;;
83099;SDS011;72972;51.784;4.660;2024-02-21T00:30:45;6.63;;;2.60;;
83099;SDS011;72972;51.784;4.660;2024-02-21T00:33:13;8.50;;;2.90;;
83099;SDS011;72972;51.784;4.660;2024-02-21T00:35:38;7.20;;;2.42;;
83099;SDS011;72972;51.784;4.660;2024-02-21T00:38:04;4.70;;;2.28;;
83099;SDS011;72972;51.784;4.660;2024-02-21T00:40:29;8.10;;;2.60;;
83099;SDS011;72972;51.784;4.660;2024-02-21T00:42:54;6.15;;;2.17;;
83099;SDS011;72972;51.784;4.660;2024-02-21T00:45:20;4.28;;;2.33;;
83099;SDS011;72972;51.784;4.660;2024-02-21T00:47:45;5.47;;;2.20;;
83099;SDS011;72972;51.784;4.660;2024-02-21T00:50:11;8.45;;;2.35;;
83099;SDS011;72972;51.784;4.660;2024-02-21T00:52:36;7.68;;;2.70;;
83099;SDS011;72972;51.784;4.660;2024-02-21T00:55:02;5.32;;;2.08;;
83099;SDS011;72972;51.784;4.660;2024-02-21T00:57:27;8.32;;;2.80;;
83099;SDS011;72972;51.784;4.660;2024-02-21T00:59:53;6.70;;;2.45;;
83099;SDS011;72972;51.784;4.660;2024-02-21T01:02:18;4.07;;;2.22;;
83099;SDS011;72972;51.784;4.660;2024-02-21T01:04:44;4.97;;;2.67;;
83099;SDS011;72972;51.784;4.660;2024-02-21T01:07:09;7.57;;;2.83;;
83099;SDS011;72972;51.784;4.660;2024-02-21T01:09:35;3.05;;;2.20;;
83099;SDS011;72972;51.784;4.660;2024-02-21T01:12:00;4.07;;;2.40;;
83099;SDS011;72972;51.784;4.660;2024-02-21T01:14:25;8.38;;;2.67;;
83099;SDS011;72972;51.784;4.660;2024-02-21T01:16:51;6.22;;;2.60;;
83099;SDS011;72972;51.784;4.660;2024-02-21T01:19:16;6.75;;;2.42;;
83099;SDS011;72972;51.784;4.660;2024-02-21T01:21:42;5.60;;;2.58;;
83099;SDS011;72972;51.784;4.660;2024-02-21T01:24:08;7.15;;;2.25;;
83099;SDS011;72972;51.784;4.660;2024-02-21T01:26:33;5.85;;;2.30;;
83099;SDS011;72972;51.784;4.660;2024-02-21T01:28:59;8.13;;;2.88;;
83099;SDS011;72972;51.784;4.660;2024-02-21T01:31:24;6.22;;;2.13;;
83099;SDS011;72972;51.784;4.660;2024-02-21T01:33:49;12.27;;;2.60;;
83099;SDS011;72972;51.784;4.660;2024-02-21T01:36:15;6.20;;;2.47;;
83099;SDS011;72972;51.784;4.660;2024-02-21T01:38:40;6.22;;;2.47;;
83099;SDS011;72972;51.784;4.660;2024-02-21T01:41:06;8.38;;;2.83;;
83099;SDS011;72972;51.784;4.660;2024-02-21T01:43:31;4.88;;;2.33;;
83099;SDS011;72972;51.784;4.660;2024-02-21T01:45:57;7.30;;;2.22;;
83099;SDS011;72972;51.784;4.660;2024-02-21T01:48:23;4.88;;;2.15;;
83099;SDS011;72972;51.784;4.660;2024-02-21T01:50:49;5.88;;;2.28;;
83099;SDS011;72972;51.784;4.660;2024-02-21T01:53:19;4.32;;;2.20;;
83099;SDS011;72972;51.784;4.660;2024-02-21T01:55:46;4.28;;;2.30;;
83099;SDS011;72972;51.784;4.660;2024-02-21T01:58:15;5.20;;;2.40;;
83099;SDS011;72972;51.784;4.660;2024-02-21T02:00:42;8.10;;;2.90;;
83099;SDS011;72972;51.784;4.660;2024-02-21T02:03:09;5.90;;;2.80;;
83099;SDS011;72972;51.784;4.660;2024-02-21T02:05:42;6.00;;;2.70;;
83099;SDS011;72972;51.784;4.660;2024-02-21T02:08:11;3.67;;;2.42;;
83099;SDS011;72972;51.784;4.660;2024-02-21T02:10:40;6.80;;;2.55;;
83099;SDS011;72972;51.784;4.660;2024-02-21T02:13:07;6.72;;;2.80;;
83099;SDS011;72972;51.784;4.660;2024-02-21T02:15:39;6.40;;;2.63;;
83099;SDS011;72972;51.784;4.660;2024-02-21T02:20:35;2.90;;;2.25;;
83099;SDS011;72972;51.784;4.660;2024-02-21T02:23:11;4.80;;;2.55;;
83099;SDS011;72972;51.784;4.660;2024-02-21T02:25:38;4.10;;;2.42;;
83099;SDS011;72972;51.784;4.660;2024-02-21T02:28:05;4.55;;;2.55;;
83099;SDS011;72972;51.784;4.660;2024-02-21T02:30:35;10.20;;;2.50;;
83099;SDS011;72972;51.784;4.660;2024-02-21T02:33:04;6.20;;;2.70;;
83099;SDS011;72972;51.784;4.660;2024-02-21T02:35:30;4.90;;;2.63;;
83099;SDS011;72972;51.784;4.660;2024-02-21T02:37:56;3.78;;;2.45;;
83099;SDS011;72972;51.784;4.660;2024-02-21T02:40:22;10.68;;;2.83;;
83099;SDS011;72972;51.784;4.660;2024-02-21T02:42:48;8.10;;;2.67;;
83099;SDS011;72972;51.784;4.660;2024-02-21T02:45:14;4.43;;;2.53;;
83099;SDS011;72972;51.784;4.660;2024-02-21T02:47:40;5.22;;;2.65;;
83099;SDS011;72972;51.784;4.660;2024-02-21T02:50:06;4.80;;;2.70;;
83099;SDS011;72972;51.784;4.660;2024-02-21T02:52:32;3.22;;;2.30;;
83099;SDS011;72972;51.784;4.660;2024-02-21T02:54:58;4.78;;;2.55;;
83099;SDS011;72972;51.784;4.660;2024-02-21T02:57:24;4.95;;;2.60;;
83099;SDS011;72972;51.784;4.660;2024-02-21T02:59:50;5.30;;;2.70;;
83099;SDS011;72972;51.784;4.660;2024-02-21T03:02:16;5.63;;;2.60;;
83099;SDS011;72972;51.784;4.660;2024-02-21T03:04:42;8.98;;;2.95;;
83099;SDS011;72972;51.784;4.660;2024-02-21T03:07:10;5.85;;;2.63;;
83099;SDS011;72972;51.784;4.660;2024-02-21T03:09:39;5.00;;;2.65;;
83099;SDS011;72972;51.784;4.660;2024-02-21T03:12:05;5.43;;;2.50;;
83099;SDS011;72972;51.784;4.660;2024-02-21T03:14:31;5.15;;;2.92;;
83099;SDS011;72972;51.784;4.660;2024-02-21T03:17:00;5.32;;;2.92;;
83099;SDS011;72972;51.784;4.660;2024-02-21T03:19:27;6.65;;;2.95;;
83099;SDS011;72972;51.784;4.660;2024-02-21T03:21:53;6.47;;;3.17;;
83099;SDS011;72972;51.784;4.660;2024-02-21T03:24:19;4.18;;;2.78;;
83099;SDS011;72972;51.784;4.660;2024-02-21T03:26:45;5.68;;;3.13;;
83099;SDS011;72972;51.784;4.660;2024-02-21T03:29:19;6.65;;;3.50;;
83099;SDS011;72972;51.784;4.660;2024-02-21T03:31:45;7.45;;;3.35;;
83099;SDS011;72972;51.784;4.660;2024-02-21T03:34:10;5.80;;;3.30;;
83099;SDS011;72972;51.784;4.660;2024-02-21T03:36:36;5.18;;;3.10;;
83099;SDS011;72972;51.784;4.660;2024-02-21T03:39:02;4.20;;;2.83;;
83099;SDS011;72972;51.784;4.660;2024-02-21T03:41:28;4.57;;;3.13;;
83099;SDS011;72972;51.784;4.660;2024-02-21T03:43:54;7.22;;;3.78;;
83099;SDS011;72972;51.784;4.660;2024-02-21T03:46:19;7.40;;;3.33;;
83099;SDS011;72972;51.784;4.660;2024-02-21T03:48:45;4.88;;;2.80;;
83099;SDS011;72972;51.784;4.660;2024-02-21T03:51:10;5.88;;;3.00;;
83099;SDS011;72972;51.784;4.660;2024-02-21T03:53:36;6.55;;;3.05;;
83099;SDS011;72972;51.784;4.660;2024-02-21T03:56:01;3.78;;;2.63;;
83099;SDS011;72972;51.784;4.660;2024-02-21T03:58:29;5.68;;;3.28;;
83099;SDS011;72972;51.784;4.660;2024-02-21T04:00:55;5.95;;;3.38;;
83099;SDS011;72972;51.784;4.660;2024-02-21T04:03:20;5.05;;;2.90;;
83099;SDS011;72972;51.784;4.660;2024-02-21T04:05:46;5.55;;;3.20;;
83099;SDS011;72972;51.784;4.660;2024-02-21T04:08:11;3.63;;;2.60;;
83099;SDS011;72972;51.784;4.660;2024-02-21T04:10:37;6.38;;;3.33;;
83099;SDS011;72972;51.784;4.660;2024-02-21T04:13:03;6.20;;;3.25;;
83099;SDS011;72972;51.784;4.660;2024-02-21T04:15:30;10.50;;;3.20;;
83099;SDS011;72972;51.784;4.660;2024-02-21T04:17:55;5.80;;;2.70;;
83099;SDS011;72972;51.784;4.660;2024-02-21T04:20:21;5.45;;;2.90;;
83099;SDS011;72972;51.784;4.660;2024-02-21T04:22:46;11.90;;;3.60;;
83099;SDS011;72972;51.784;4.660;2024-02-21T04:25:12;8.48;;;3.70;;
83099;SDS011;72972;51.784;4.660;2024-02-21T04:27:38;6.70;;;3.60;;
83099;SDS011;72972;51.784;4.660;2024-02-21T04:30:04;8.63;;;3.80;;
83099;SDS011;72972;51.784;4.660;2024-02-21T04:32:31;6.50;;;3.30;;
83099;SDS011;72972;51.784;4.660;2024-02-21T04:34:57;8.40;;;3.83;;
83099;SDS011;72972;51.784;4.660;2024-02-21T04:37:22;6.38;;;3.50;;
83099;SDS011;72972;51.784;4.660;2024-02-21T04:39:48;10.63;;;4.18;;
83099;SDS011;72972;51.784;4.660;2024-02-21T04:42:14;7.00;;;4.15;;
83099;SDS011;72972;51.784;4.660;2024-02-21T04:44:40;11.98;;;4.43;;
83099;SDS011;72972;51.784;4.660;2024-02-21T04:47:06;7.32;;;3.92;;
83099;SDS011;72972;51.784;4.660;2024-02-21T04:49:32;8.82;;;4.72;;
83099;SDS011;72972;51.784;4.660;2024-02-21T04:51:58;14.20;;;4.10;;
83099;SDS011;72972;51.784;4.660;2024-02-21T04:54:23;9.50;;;4.40;;
83099;SDS011;72972;51.784;4.660;2024-02-21T04:56:49;10.23;;;4.00;;
83099;SDS011;72972;51.784;4.660;2024-02-21T04:59:14;7.25;;;4.28;;
83099;SDS011;72972;51.784;4.660;2024-02-21T05:01:40;8.73;;;4.80;;
83099;SDS011;72972;51.784;4.660;2024-02-21T05:04:05;13.05;;;4.63;;
83099;SDS011;72972;51.784;4.660;2024-02-21T05:06:31;11.57;;;4.20;;
83099;SDS011;72972;51.784;4.660;2024-02-21T05:08:56;12.23;;;5.10;;
83099;SDS011;72972;51.784;4.660;2024-02-21T05:11:23;8.13;;;3.95;;
83099;SDS011;72972;51.784;4.660;2024-02-21T05:13:49;8.50;;;4.10;;
83099;SDS011;72972;51.784;4.660;2024-02-21T05:16:15;14.40;;;5.03;;
83099;SDS011;72972;51.784;4.660;2024-02-21T05:18:41;10.18;;;4.57;;
83099;SDS011;72972;51.784;4.660;2024-02-21T05:21:07;14.80;;;4.80;;
83099;SDS011;72972;51.784;4.660;2024-02-21T05:23:33;6.78;;;4.60;;
83099;SDS011;72972;51.784;4.660;2024-02-21T05:25:59;8.23;;;4.35;;
83099;SDS011;72972;51.784;4.660;2024-02-21T05:28:24;11.55;;;5.13;;
83099;SDS011;72972;51.784;4.660;2024-02-21T05:30:50;9.63;;;4.43;;
83099;SDS011;72972;51.784;4.660;2024-02-21T05:33:15;8.52;;;4.47;;
83099;SDS011;72972;51.784;4.660;2024-02-21T05:35:46;9.80;;;4.55;;
83099;SDS011;72972;51.784;4.660;2024-02-21T05:38:14;13.57;;;5.07;;
83099;SDS011;72972;51.784;4.660;2024-02-21T05:40:40;9.35;;;5.50;;
83099;SDS011;72972;51.784;4.660;2024-02-21T05:43:07;8.27;;;4.70;;
83099;SDS011;72972;51.784;4.660;2024-02-21T05:45:32;12.98;;;5.35;;
83099;SDS011;72972;51.784;4.660;2024-02-21T05:47:58;11.85;;;5.35;;
83099;SDS011;72972;51.784;4.660;2024-02-21T05:50:23;9.07;;;4.80;;
83099;SDS011;72972;51.784;4.660;2024-02-21T05:52:55;11.15;;;5.03;;
83099;SDS011;72972;51.784;4.660;2024-02-21T05:55:21;11.85;;;5.72;;
83099;SDS011;72972;51.784;4.660;2024-02-21T05:57:47;17.63;;;5.95;;
83099;SDS011;72972;51.784;4.660;2024-02-21T06:00:14;15.48;;;5.47;;
83099;SDS011;72972;51.784;4.660;2024-02-21T06:02:40;8.27;;;5.10;;
83099;SDS011;72972;51.784;4.660;2024-02-21T06:05:06;9.65;;;5.57;;
83099;SDS011;72972;51.784;4.660;2024-02-21T06:07:33;9.98;;;5.13;;
83099;SDS011;72972;51.784;4.660;2024-02-21T06:09:59;12.18;;;5.05;;
83099;SDS011;72972;51.784;4.660;2024-02-21T06:12:25;8.77;;;4.53;;
83099;SDS011;72972;51.784;4.660;2024-02-21T06:14:50;11.90;;;5.40;;
83099;SDS011;72972;51.784;4.660;2024-02-21T06:17:17;19.45;;;5.88;;
83099;SDS011;72972;51.784;4.660;2024-02-21T06:19:42;13.73;;;5.85;;
83099;SDS011;72972;51.784;4.660;2024-02-21T06:22:08;13.23;;;5.30;;
83099;SDS011;72972;51.784;4.660;2024-02-21T06:24:35;12.95;;;5.63;;
83099;SDS011;72972;51.784;4.660;2024-02-21T06:27:01;11.63;;;6.07;;
83099;SDS011;72972;51.784;4.660;2024-02-21T06:29:27;10.80;;;5.72;;
83099;SDS011;72972;51.784;4.660;2024-02-21T06:31:53;9.60;;;5.00;;
83099;SDS011;72972;51.784;4.660;2024-02-21T06:34:18;10.40;;;5.82;;
83099;SDS011;72972;51.784;4.660;2024-02-21T06:36:44;13.40;;;5.60;;
83099;SDS011;72972;51.784;4.660;2024-02-21T06:39:10;10.85;;;5.97;;
83099;SDS011;72972;51.784;4.660;2024-02-21T06:41:36;11.35;;;6.40;;
83099;SDS011;72972;51.784;4.660;2024-02-21T06:44:02;13.38;;;6.18;;
83099;SDS011;72972;51.784;4.660;2024-02-21T06:46:28;13.57;;;5.35;;
83099;SDS011;72972;51.784;4.660;2024-02-21T06:48:55;10.27;;;6.10;;
83099;SDS011;72972;51.784;4.660;2024-02-21T06:51:23;9.02;;;5.43;;
83099;SDS011;72972;51.784;4.660;2024-02-21T06:53:50;13.82;;;6.70;;
83099;SDS011;72972;51.784;4.660;2024-02-21T06:56:15;13.10;;;6.50;;
83099;SDS011;72972;51.784;4.660;2024-02-21T06:58:41;15.00;;;6.40;;
83099;SDS011;72972;51.784;4.660;2024-02-21T07:01:06;11.93;;;6.32;;
83099;SDS011;72972;51.784;4.660;2024-02-21T07:03:32;12.77;;;7.00;;
83099;SDS011;72972;51.784;4.660;2024-02-21T07:05:58;12.63;;;6.85;;
83099;SDS011;72972;51.784;4.660;2024-02-21T07:08:23;13.68;;;6.85;;
83099;SDS011;72972;51.784;4.660;2024-02-21T07:10:49;15.15;;;6.43;;
83099;SDS011;72972;51.784;4.660;2024-02-21T07:13:14;9.07;;;5.88;;
83099;SDS011;72972;51.784;4.660;2024-02-21T07:15:40;15.70;;;6.85;;
83099;SDS011;72972;51.784;4.660;2024-02-21T07:18:07;11.75;;;7.00;;
83099;SDS011;72972;51.784;4.660;2024-02-21T07:20:32;16.48;;;7.10;;
83099;SDS011;72972;51.784;4.660;2024-02-21T07:23:06;12.48;;;6.70;;
83099;SDS011;72972;51.784;4.660;2024-02-21T07:25:32;14.63;;;6.13;;
83099;SDS011;72972;51.784;4.660;2024-02-21T07:27:57;12.60;;;6.55;;
83099;SDS011;72972;51.784;4.660;2024-02-21T07:30:22;11.18;;;6.20;;
83099;SDS011;72972;51.784;4.660;2024-02-21T07:32:51;12.57;;;5.63;;
83099;SDS011;72972;51.784;4.660;2024-02-21T07:35:20;9.32;;;5.97;;
83099;SDS011;72972;51.784;4.660;2024-02-21T07:37:45;11.90;;;5.88;;
83099;SDS011;72972;51.784;4.660;2024-02-21T07:40:14;15.15;;;6.78;;
83099;SDS011;72972;51.784;4.660;2024-02-21T07:45:09;11.40;;;6.18;;
83099;SDS011;72972;51.784;4.660;2024-02-21T07:47:35;18.13;;;6.32;;
83099;SDS011;72972;51.784;4.660;2024-02-21T07:50:01;13.02;;;6.03;;
83099;SDS011;72972;51.784;4.660;2024-02-21T07:52:30;11.73;;;6.47;;
83099;SDS011;72972;51.784;4.660;2024-02-21T07:54:55;12.52;;;6.18;;
83099;SDS011;72972;51.784;4.660;2024-02-21T07:57:21;12.93;;;6.53;;
83099;SDS011;72972;51.784;4.660;2024-02-21T07:59:47;12.93;;;5.85;;
83099;SDS011;72972;51.784;4.660;2024-02-21T08:02:15;13.35;;;6.45;;
83099;SDS011;72972;51.784;4.660;2024-02-21T08:04:41;13.15;;;6.10;;
83099;SDS011;72972;51.784;4.660;2024-02-21T08:07:07;14.93;;;5.78;;
83099;SDS011;72972;51.784;4.660;2024-02-21T08:09:32;13.15;;;6.15;;
83099;SDS011;72972;51.784;4.660;2024-02-21T08:11:58;10.63;;;6.32;;
83099;SDS011;72972;51.784;4.660;2024-02-21T08:14:23;11.25;;;6.05;;
83099;SDS011;72972;51.784;4.660;2024-02-21T08:16:53;11.93;;;6.10;;
83099;SDS011;72972;51.784;4.660;2024-02-21T08:19:20;10.93;;;6.03;;
83099;SDS011;72972;51.784;4.660;2024-02-21T08:21:46;12.95;;;6.93;;
83099;SDS011;72972;51.784;4.660;2024-02-21T08:24:12;14.52;;;7.30;;
83099;SDS011;72972;51.784;4.660;2024-02-21T08:26:41;13.05;;;6.95;;
83099;SDS011;72972;51.784;4.660;2024-02-21T08:31:37;14.82;;;6.32;;
83099;SDS011;72972;51.784;4.660;2024-02-21T08:34:02;13.00;;;6.55;;
83099;SDS011;72972;51.784;4.660;2024-02-21T08:36:38;16.70;;;7.80;;
83099;SDS011;72972;51.784;4.660;2024-02-21T08:39:03;14.07;;;6.68;;
83099;SDS011;72972;51.784;4.660;2024-02-21T08:41:33;12.13;;;6.50;;
83099;SDS011;72972;51.784;4.660;2024-02-21T08:43:59;11.32;;;5.85;;
83099;SDS011;72972;51.784;4.660;2024-02-21T08:46:25;13.02;;;6.20;;
83099;SDS011;72972;51.784;4.660;2024-02-21T08:48:52;11.85;;;6.65;;
83099;SDS011;72972;51.784;4.660;2024-02-21T08:51:18;14.50;;;6.05;;
83099;SDS011;72972;51.784;4.660;2024-02-21T08:53:44;11.65;;;6.90;;
83099;SDS011;72972;51.784;4.660;2024-02-21T08:56:10;9.20;;;6.00;;
83099;SDS011;72972;51.784;4.660;2024-02-21T08:58:36;9.43;;;5.93;;
83099;SDS011;72972;51.784;4.660;2024-02-21T09:01:05;12.23;;;6.38;;
83099;SDS011;72972;51.784;4.660;2024-02-21T09:03:38;9.45;;;5.68;;
83099;SDS011;72972;51.784;4.660;2024-02-21T09:06:07;11.60;;;6.15;;
83099;SDS011;72972;51.784;4.660;2024-02-21T09:08:34;11.07;;;5.57;;
83099;SDS011;72972;51.784;4.660;2024-02-21T09:11:00;12.23;;;5.53;;
83099;SDS011;72972;51.784;4.660;2024-02-21T09:13:26;10.68;;;5.45;;
83099;SDS011;72972;51.784;4.660;2024-02-21T09:15:52;11.13;;;5.82;;
83099;SDS011;72972;51.784;4.660;2024-02-21T09:18:18;9.93;;;5.97;;
83099;SDS011;72972;51.784;4.660;2024-02-21T09:20:43;11.30;;;5.35;;
83099;SDS011;72972;51.784;4.660;2024-02-21T09:23:09;8.50;;;5.57;;
83099;SDS011;72972;51.784;4.660;2024-02-21T09:25:35;10.88;;;5.38;;
83099;SDS011;72972;51.784;4.660;2024-02-21T09:28:03;9.88;;;5.50;;
83099;SDS011;72972;51.784;4.660;2024-02-21T09:30:31;12.38;;;6.20;;
83099;SDS011;72972;51.784;4.660;2024-02-21T09:32:56;9.35;;;5.20;;
83099;SDS011;72972;51.784;4.660;2024-02-21T09:35:24;10.55;;;5.70;;
83099;SDS011;72972;51.784;4.660;2024-02-21T09:37:51;17.45;;;5.95;;
83099;SDS011;72972;51.784;4.660;2024-02-21T09:40:17;9.88;;;5.28;;
83099;SDS011;72972;51.784;4.660;2024-02-21T09:42:43;8.00;;;5.20;;
83099;SDS011;72972;51.784;4.660;2024-02-21T09:45:21;9.40;;;4.85;;
83099;SDS011;72972;51.784;4.660;2024-02-21T09:50:17;9.50;;;5.15;;
83099;SDS011;72972;51.784;4.660;2024-02-21T09:52:43;9.93;;;5.70;;
83099;SDS011;72972;51.784;4.660;2024-02-21T09:55:10;12.07;;;5.30;;
83099;SDS011;72972;51.784;4.660;2024-02-21T09:57:38;8.60;;;4.93;;
83099;SDS011;72972;51.784;4.660;2024-02-21T10:00:15;11.50;;;5.32;;
83099;SDS011;72972;51.784;4.660;2024-02-21T10:05:13;9.18;;;5.32;;
83099;SDS011;72972;51.784;4.660;2024-02-21T10:07:38;6.82;;;4.82;;
83099;SDS011;72972;51.784;4.660;2024-02-21T10:10:04;8.73;;;5.38;;
83099;SDS011;72972;51.784;4.660;2024-02-21T10:12:31;10.13;;;5.00;;
83099;SDS011;72972;51.784;4.660;2024-02-21T10:15:03;10.05;;;5.40;;
83099;SDS011;72972;51.784;4.660;2024-02-21T10:17:29;8.13;;;5.38;;
83099;SDS011;72972;51.784;4.660;2024-02-21T10:19:55;6.53;;;5.05;;
83099;SDS011;72972;51.784;4.660;2024-02-21T10:22:20;9.57;;;5.40;;
83099;SDS011;72972;51.784;4.660;2024-02-21T10:24:46;6.85;;;4.90;;
83099;SDS011;72972;51.784;4.660;2024-02-21T10:27:11;8.32;;;5.45;;
83099;SDS011;72972;51.784;4.660;2024-02-21T10:29:37;8.32;;;5.50;;
83099;SDS011;72972;51.784;4.660;2024-02-21T10:32:07;8.65;;;5.95;;
83099;SDS011;72972;51.784;4.660;2024-02-21T10:34:34;7.03;;;4.78;;
83099;SDS011;72972;51.784;4.660;2024-02-21T10:37:01;8.20;;;5.43;;
83099;SDS011;72972;51.784;4.660;2024-02-21T10:39:33;7.55;;;5.53;;
83099;SDS011;72972;51.784;4.660;2024-02-21T10:42:01;9.30;;;5.72;;
83099;SDS011;72972;51.784;4.660;2024-02-21T10:44:30;14.80;;;6.32;;
83099;SDS011;72972;51.784;4.660;2024-02-21T10:46:57;15.02;;;6.70;;
83099;SDS011;72972;51.784;4.660;2024-02-21T10:49:24;14.50;;;6.47;;
83099;SDS011;72972;51.784;4.660;2024-02-21T10:51:54;13.15;;;5.93;;
83099;SDS011;72972;51.784;4.660;2024-02-21T10:57:15;8.55;;;5.78;;
83099;SDS011;72972;51.784;4.660;2024-02-21T10:59:44;8.45;;;5.63;;
83099;SDS011;72972;51.784;4.660;2024-02-21T11:02:10;11.55;;;6.60;;
83099;SDS011;72972;51.784;4.660;2024-02-21T11:04:36;9.77;;;5.57;;
83099;SDS011;72972;51.784;4.660;2024-02-21T11:07:05;9.35;;;6.03;;
83099;SDS011;72972;51.784;4.660;2024-02-21T11:09:31;9.10;;;5.97;;
83099;SDS011;72972;51.784;4.660;2024-02-21T11:11:58;10.60;;;6.38;;
83099;SDS011;72972;51.784;4.660;2024-02-21T11:14:26;13.50;;;6.88;;
83099;SDS011;72972;51.784;4.660;2024-02-21T11:16:53;13.05;;;6.45;;
83099;SDS011;72972;51.784;4.660;2024-02-21T11:19:20;9.50;;;5.90;;
83099;SDS011;72972;51.784;4.660;2024-02-21T11:21:50;8.75;;;6.07;;
83099;SDS011;72972;51.784;4.660;2024-02-21T11:24:29;9.65;;;5.18;;
83099;SDS011;72972;51.784;4.660;2024-02-21T11:26:55;8.25;;;5.78;;
83099;SDS011;72972;51.784;4.660;2024-02-21T11:29:25;9.68;;;5.70;;
83099;SDS011;72972;51.784;4.660;2024-02-21T11:31:51;7.88;;;5.85;;
83099;SDS011;72972;51.784;4.660;2024-02-21T11:34:17;7.32;;;5.22;;
83099;SDS011;72972;51.784;4.660;2024-02-21T11:36:49;8.73;;;4.97;;
83099;SDS011;72972;51.784;4.660;2024-02-21T11:39:23;7.57;;;5.25;;
83099;SDS011;72972;51.784;4.660;2024-02-21T11:44:29;9.25;;;6.18;;
83099;SDS011;72972;51.784;4.660;2024-02-21T11:46:56;7.30;;;4.65;;
83099;SDS011;72972;51.784;4.660;2024-02-21T11:49:21;9.10;;;5.32;;
83099;SDS011;72972;51.784;4.660;2024-02-21T11:51:57;8.70;;;4.68;;
83099;SDS011;72972;51.784;4.660;2024-02-21T11:54:24;8.40;;;4.70;;
83099;SDS011;72972;51.784;4.660;2024-02-21T11:56:49;6.15;;;4.63;;
83099;SDS011;72972;51.784;4.660;2024-02-21T11:59:15;10.55;;;5.25;;
83099;SDS011;72972;51.784;4.660;2024-02-21T12:01:40;8.02;;;4.28;;
83099;SDS011;72972;51.784;4.660;2024-02-21T12:04:06;6.90;;;5.00;;
83099;SDS011;72972;51.784;4.660;2024-02-21T12:06:32;9.40;;;4.68;;
83099;SDS011;72972;51.784;4.660;2024-02-21T12:08:58;7.35;;;4.53;;
83099;SDS011;72972;51.784;4.660;2024-02-21T12:11:23;7.13;;;4.32;;
83099;SDS011;72972;51.784;4.660;2024-02-21T12:13:58;6.13;;;3.53;;
83099;SDS011;72972;51.784;4.660;2024-02-21T12:16:26;6.57;;;4.32;;
83099;SDS011;72972;51.784;4.660;2024-02-21T12:18:53;7.68;;;4.50;;
83099;SDS011;72972;51.784;4.660;2024-02-21T12:21:19;6.43;;;4.25;;
83099;SDS011;72972;51.784;4.660;2024-02-21T12:23:44;6.78;;;4.13;;
83099;SDS011;72972;51.784;4.660;2024-02-21T12:26:12;7.20;;;4.30;;
83099;SDS011;72972;51.784;4.660;2024-02-21T12:28:37;6.20;;;4.18;;
83099;SDS011;72972;51.784;4.660;2024-02-21T12:31:03;6.60;;;4.28;;
83099;SDS011;72972;51.784;4.660;2024-02-21T12:33:29;6.15;;;4.10;;
83099;SDS011;72972;51.784;4.660;2024-02-21T12:35:55;7.35;;;4.72;;
83099;SDS011;72972;51.784;4.660;2024-02-21T12:38:21;6.22;;;3.67;;
83099;SDS011;72972;51.784;4.660;2024-02-21T12:40:46;7.32;;;4.30;;
83099;SDS011;72972;51.784;4.660;2024-02-21T12:43:12;12.73;;;5.70;;
83099;SDS011;72972;51.784;4.660;2024-02-21T12:45:38;9.43;;;4.65;;
83099;SDS011;72972;51.784;4.660;2024-02-21T12:48:03;6.75;;;4.60;;
83099;SDS011;72972;51.784;4.660;2024-02-21T12:50:30;9.55;;;4.90;;
83099;SDS011;72972;51.784;4.660;2024-02-21T12:52:56;5.60;;;4.32;;
83099;SDS011;72972;51.784;4.660;2024-02-21T12:55:23;6.60;;;4.55;;
83099;SDS011;72972;51.784;4.660;2024-02-21T12:57:49;6.70;;;4.18;;
83099;SDS011;72972;51.784;4.660;2024-02-21T13:00:18;5.32;;;4.13;;
83099;SDS011;72972;51.784;4.660;2024-02-21T13:02:45;8.60;;;4.68;;
83099;SDS011;72972;51.784;4.660;2024-02-21T13:05:11;7.20;;;4.70;;
83099;SDS011;72972;51.784;4.660;2024-02-21T13:07:37;7.15;;;4.00;;
83099;SDS011;72972;51.784;4.660;2024-02-21T13:10:02;4.07;;;3.67;;
83099;SDS011;72972;51.784;4.660;2024-02-21T13:12:30;6.22;;;4.15;;
83099;SDS011;72972;51.784;4.660;2024-02-21T13:14:56;11.15;;;4.38;;
83099;SDS011;72972;51.784;4.660;2024-02-21T13:17:21;7.53;;;4.22;;
83099;SDS011;72972;51.784;4.660;2024-02-21T13:19:47;5.40;;;3.70;;
83099;SDS011;72972;51.784;4.660;2024-02-21T13:22:13;8.25;;;3.83;;
83099;SDS011;72972;51.784;4.660;2024-02-21T13:24:39;4.40;;;3.03;;
83099;SDS011;72972;51.784;4.660;2024-02-21T13:27:04;4.65;;;3.10;;
83099;SDS011;72972;51.784;4.660;2024-02-21T13:29:30;5.25;;;3.00;;
83099;SDS011;72972;51.784;4.660;2024-02-21T13:31:56;4.68;;;3.00;;
83099;SDS011;72972;51.784;4.660;2024-02-21T13:34:21;5.90;;;3.17;;
83099;SDS011;72972;51.784;4.660;2024-02-21T13:36:47;6.10;;;2.80;;
83099;SDS011;72972;51.784;4.660;2024-02-21T13:39:13;8.45;;;3.97;;
83099;SDS011;72972;51.784;4.660;2024-02-21T13:41:41;12.38;;;3.45;;
83099;SDS011;72972;51.784;4.660;2024-02-21T13:44:07;4.60;;;2.67;;
83099;SDS011;72972;51.784;4.660;2024-02-21T13:46:34;6.47;;;3.45;;
83099;SDS011;72972;51.784;4.660;2024-02-21T13:49:03;8.00;;;3.38;;
83099;SDS011;72972;51.784;4.660;2024-02-21T13:51:30;4.82;;;3.28;;
83099;SDS011;72972;51.784;4.660;2024-02-21T13:53:56;5.93;;;3.80;;
83099;SDS011;72972;51.784;4.660;2024-02-21T13:56:21;8.38;;;3.10;;
83099;SDS011;72972;51.784;4.660;2024-02-21T13:58:47;9.07;;;3.45;;
83099;SDS011;72972;51.784;4.660;2024-02-21T14:01:12;6.68;;;3.67;;
83099;SDS011;72972;51.784;4.660;2024-02-21T14:03:38;6.07;;;3.80;;
83099;SDS011;72972;51.784;4.660;2024-02-21T14:06:03;6.13;;;3.95;;
83099;SDS011;72972;51.784;4.660;2024-02-21T14:08:30;6.38;;;4.30;;
83099;SDS011;72972;51.784;4.660;2024-02-21T14:10:56;10.10;;;4.78;;
83099;SDS011;72972;51.784;4.660;2024-02-21T14:13:24;5.88;;;3.97;;
83099;SDS011;72972;51.784;4.660;2024-02-21T14:15:49;8.82;;;4.03;;
83099;SDS011;72972;51.784;4.660;2024-02-21T14:18:15;5.60;;;4.07;;
83099;SDS011;72972;51.784;4.660;2024-02-21T14:20:41;7.78;;;4.80;;
83099;SDS011;72972;51.784;4.660;2024-02-21T14:23:06;6.85;;;4.82;;
83099;SDS011;72972;51.784;4.660;2024-02-21T14:25:32;5.63;;;4.45;;
83099;SDS011;72972;51.784;4.660;2024-02-21T14:27:58;10.18;;;4.55;;
83099;SDS011;72972;51.784;4.660;2024-02-21T14:30:25;7.63;;;4.47;;
83099;SDS011;72972;51.784;4.660;2024-02-21T14:32:51;7.18;;;4.15;;
83099;SDS011;72972;51.784;4.660;2024-02-21T14:35:16;8.30;;;4.38;;
83099;SDS011;72972;51.784;4.660;2024-02-21T14:37:42;6.47;;;4.25;;
83099;SDS011;72972;51.784;4.660;2024-02-21T14:40:08;9.70;;;4.32;;
83099;SDS011;72972;51.784;4.660;2024-02-21T14:42:33;7.28;;;3.33;;
83099;SDS011;72972;51.784;4.660;2024-02-21T14:44:59;7.53;;;4.20;;
83099;SDS011;72972;51.784;4.660;2024-02-21T14:47:34;5.53;;;3.65;;
83099;SDS011;72972;51.784;4.660;2024-02-21T14:50:00;6.78;;;3.88;;
83099;SDS011;72972;51.784;4.660;2024-02-21T14:52:27;7.10;;;3.25;;
83099;SDS011;72972;51.784;4.660;2024-02-21T14:54:54;5.75;;;3.28;;
83099;SDS011;72972;51.784;4.660;2024-02-21T14:57:20;7.68;;;3.42;;